Time;durP1;ratioP1;P1;durP2;ratioP2;P2;SDS_P1;SDS_P2;PMS_P1;PMS_P2;Temp;Humidity;BMP_temperature;BMP_pressure;BME280_temperature;BME280_humidity;BME280_pressure;Samples;Min_cycle;Max_cycle;Signal;HPM_P1;HPM_P2
2022/02/26 00:00:45;;;;;;;2.70;2.00;;;;;18.00;101946.00;;;;2076079;28;20292;-59
2022/02/26 00:01:45;;;;;;;2.73;1.90;;;;;18.00;101947.00;;;;2076333;28;20248;-59
2022/02/26 00:02:46;;;;;;;2.70;2.00;;;;;18.00;101954.00;;;;2075929;28;20224;-59
2022/02/26 00:03:46;;;;;;;3.53;2.47;;;;;18.00;101958.00;;;;2076645;28;20236;-59
2022/02/26 00:04:46;;;;;;;2.33;1.70;;;;;18.00;101955.00;;;;2076890;28;20252;-59
2022/02/26 00:05:48;;;;;;;2.50;2.07;;;;;18.00;101958.00;;;;2076928;28;20210;-59
2022/02/26 00:06:48;;;;;;;3.15;1.90;;;;;18.10;101958.00;;;;2076978;28;20202;-60
2022/02/26 00:07:48;;;;;;;3.30;2.37;;;;;18.00;101963.00;;;;2076437;28;20212;-59
2022/02/26 00:08:49;;;;;;;2.37;1.90;;;;;18.00;101966.00;;;;2072773;28;20231;-59
2022/02/26 00:09:49;;;;;;;2.87;1.80;;;;;18.00;101964.00;;;;2076787;28;20224;-59
2022/02/26 00:10:50;;;;;;;2.13;1.80;;;;;18.00;101968.00;;;;2075910;28;20209;-59
2022/02/26 00:11:50;;;;;;;4.38;2.33;;;;;18.00;101976.00;;;;2075461;28;20209;-59
2022/02/26 00:12:54;;;;;;;3.20;1.70;;;;;18.00;101976.00;;;;2076157;28;20252;-59
2022/02/26 00:13:54;;;;;;;2.85;1.95;;;;;18.00;101978.00;;;;2073038;28;20232;-59
2022/02/26 00:14:55;;;;;;;2.50;1.90;;;;;18.00;101977.00;;;;2075785;28;20252;-59
2022/02/26 00:15:55;;;;;;;2.93;2.20;;;;;18.00;101978.00;;;;2076575;28;20882;-59
2022/02/26 00:16:55;;;;;;;2.73;2.07;;;;;18.00;101984.00;;;;2077438;28;20229;-59
2022/02/26 00:17:56;;;;;;;3.80;2.13;;;;;18.00;101980.00;;;;2075932;28;20267;-59
2022/02/26 00:18:56;;;;;;;4.63;2.43;;;;;18.00;101989.00;;;;2073674;28;20222;-59
2022/02/26 00:19:56;;;;;;;2.63;1.90;;;;;18.00;101996.00;;;;2076149;28;20216;-59
2022/02/26 00:20:57;;;;;;;2.80;2.07;;;;;18.00;101998.00;;;;2076242;28;20234;-59
2022/02/26 00:21:58;;;;;;;3.50;2.40;;;;;18.00;102000.00;;;;2076309;28;20245;-59
2022/02/26 00:22:59;;;;;;;3.00;1.98;;;;;18.00;102004.00;;;;2076510;28;20206;-59
2022/02/26 00:23:59;;;;;;;2.50;2.03;;;;;18.00;101999.00;;;;2076247;28;20206;-59
2022/02/26 00:24:59;;;;;;;2.40;2.10;;;;;18.00;102002.00;;;;2077119;28;20210;-59
2022/02/26 00:26:00;;;;;;;2.90;2.10;;;;;18.00;102005.00;;;;2077256;28;20217;-59
2022/02/26 00:27:00;;;;;;;2.67;1.53;;;;;18.00;102011.00;;;;2077317;28;20213;-59
2022/02/26 00:28:00;;;;;;;2.73;2.17;;;;;17.80;102022.00;;;;2076959;28;20582;-59
2022/02/26 00:29:01;;;;;;;2.57;1.90;;;;;18.00;102013.00;;;;2073216;28;20591;-59
2022/02/26 00:30:01;;;;;;;2.00;1.80;;;;;18.00;102013.00;;;;2076161;28;20218;-59
2022/02/26 00:31:01;;;;;;;3.23;2.20;;;;;18.00;102018.00;;;;2075922;28;20221;-59
2022/02/26 00:32:02;;;;;;;2.07;1.80;;;;;18.00;102019.00;;;;2076351;28;20229;-59
2022/02/26 00:33:03;;;;;;;2.50;2.30;;;;;18.00;102016.00;;;;2067948;28;20305;-59
2022/02/26 00:34:03;;;;;;;3.20;2.10;;;;;18.00;102025.00;;;;2070852;28;20468;-59
2022/02/26 00:35:04;;;;;;;4.07;2.07;;;;;18.00;102027.00;;;;2076077;28;20276;-59
2022/02/26 00:36:05;;;;;;;2.77;2.00;;;;;18.00;102026.00;;;;2076041;28;20221;-60
2022/02/26 00:37:05;;;;;;;2.25;1.70;;;;;18.00;102018.00;;;;2076248;28;20213;-59
2022/02/26 00:38:06;;;;;;;2.30;2.00;;;;;18.00;102022.00;;;;2075202;28;20218;-59
2022/02/26 00:39:06;;;;;;;3.00;1.97;;;;;18.00;102026.00;;;;2075292;28;20217;-59
2022/02/26 00:40:07;;;;;;;3.10;1.87;;;;;18.00;102019.00;;;;2076190;28;20214;-59
2022/02/26 00:41:08;;;;;;;3.40;2.03;;;;;18.00;102022.00;;;;2076544;28;20215;-59
2022/02/26 00:42:08;;;;;;;2.90;2.10;;;;;18.00;102023.00;;;;2077135;28;20218;-60
2022/02/26 00:43:08;;;;;;;3.97;2.30;;;;;18.00;102023.00;;;;2077019;28;20313;-59
2022/02/26 00:44:09;;;;;;;3.13;2.07;;;;;18.00;102025.00;;;;2076441;28;20220;-59
2022/02/26 00:45:10;;;;;;;3.55;2.10;;;;;18.00;102016.00;;;;2075873;28;20229;-59
2022/02/26 00:46:10;;;;;;;2.47;1.90;;;;;18.00;102017.00;;;;2076334;28;20213;-59
2022/02/26 00:47:11;;;;;;;2.70;2.07;;;;;18.00;102035.00;;;;2076322;28;20296;-59
2022/02/26 00:48:11;;;;;;;2.80;1.90;;;;;18.00;102031.00;;;;2075609;28;20237;-59
2022/02/26 00:50:31;;;;;;;4.05;2.30;;;;;18.00;102016.00;;;;2070619;28;20224;-59
2022/02/26 00:51:31;;;;;;;3.03;2.20;;;;;18.00;102039.00;;;;2083147;28;20209;-59
2022/02/26 00:52:34;;;;;;;3.30;1.90;;;;;18.00;102029.00;;;;2077786;28;20213;-59
2022/02/26 00:53:34;;;;;;;2.75;1.77;;;;;18.00;102034.00;;;;2075614;28;20248;-60
2022/02/26 00:54:34;;;;;;;3.00;2.10;;;;;18.00;102042.00;;;;2075572;28;20288;-59
2022/02/26 00:55:35;;;;;;;2.80;2.10;;;;;18.00;102029.00;;;;2076142;28;20283;-59
2022/02/26 00:56:35;;;;;;;2.77;1.90;;;;;18.00;102034.00;;;;2074799;28;20206;-59
2022/02/26 00:57:35;;;;;;;2.60;2.03;;;;;18.00;102044.00;;;;2075756;28;20221;-59
2022/02/26 00:58:36;;;;;;;2.93;2.00;;;;;18.00;102042.00;;;;2075623;28;20202;-59
2022/02/26 00:59:36;;;;;;;3.50;2.37;;;;;18.00;102042.00;;;;2075988;28;20268;-59
2022/02/26 01:00:36;;;;;;;2.37;1.80;;;;;18.00;102043.00;;;;2075619;28;20214;-59
2022/02/26 01:01:37;;;;;;;3.17;2.07;;;;;17.90;102040.00;;;;2076441;28;20333;-59
2022/02/26 01:02:37;;;;;;;2.80;1.83;;;;;17.90;102040.00;;;;2076525;28;20210;-59
2022/02/26 01:03:37;;;;;;;2.77;2.00;;;;;18.00;102057.00;;;;2076440;28;20206;-59
2022/02/26 01:04:38;;;;;;;2.40;2.10;;;;;18.00;102050.00;;;;2075950;28;20585;-59
2022/02/26 01:05:40;;;;;;;3.13;2.15;;;;;17.90;102063.00;;;;2075992;28;20637;-59
2022/02/26 01:06:41;;;;;;;2.78;1.83;;;;;17.90;102052.00;;;;2075860;28;20214;-59
2022/02/26 01:07:41;;;;;;;2.17;1.87;;;;;18.00;102063.00;;;;2076603;28;20296;-59
2022/02/26 01:08:41;;;;;;;3.67;2.33;;;;;18.00;102057.00;;;;2076671;28;20206;-59
2022/02/26 01:09:42;;;;;;;3.20;1.90;;;;;17.90;102057.00;;;;2075421;28;20788;-59
2022/02/26 01:10:42;;;;;;;4.60;2.07;;;;;17.90;102055.00;;;;2075447;28;20721;-59
2022/02/26 01:11:42;;;;;;;3.07;2.07;;;;;17.90;102052.00;;;;2075908;28;20218;-59
2022/02/26 01:12:43;;;;;;;3.30;2.57;;;;;17.90;102053.00;;;;2075375;28;20239;-59
2022/02/26 01:13:44;;;;;;;2.50;2.08;;;;;17.90;102056.00;;;;2075184;28;21677;-60
2022/02/26 01:14:44;;;;;;;3.00;1.93;;;;;17.90;102050.00;;;;2074619;28;20242;-59
2022/02/26 01:15:45;;;;;;;3.10;2.50;;;;;17.90;102057.00;;;;2075037;28;20237;-59
2022/02/26 01:16:45;;;;;;;2.60;1.73;;;;;17.70;102055.00;;;;2075911;28;20218;-59
2022/02/26 01:17:45;;;;;;;2.73;1.60;;;;;17.90;102048.00;;;;2075679;28;20238;-59
2022/02/26 01:18:46;;;;;;;3.13;1.70;;;;;17.90;102063.00;;;;2075096;28;20216;-60
2022/02/26 01:19:48;;;;;;;2.87;1.93;;;;;17.90;102063.00;;;;2074177;28;20210;-59
2022/02/26 01:20:48;;;;;;;3.35;2.17;;;;;17.90;102020.00;;;;2074440;28;20209;-59
2022/02/26 01:21:48;;;;;;;3.23;1.90;;;;;17.90;102054.00;;;;2075576;28;20228;-59
2022/02/26 01:22:49;;;;;;;3.77;1.90;;;;;17.90;102059.00;;;;2074900;28;20236;-59
2022/02/26 01:23:49;;;;;;;2.93;2.13;;;;;17.90;102057.00;;;;2074991;28;20349;-59
2022/02/26 01:24:49;;;;;;;3.13;2.00;;;;;17.90;102052.00;;;;2071350;28;20216;-59
2022/02/26 01:25:50;;;;;;;2.50;1.80;;;;;17.90;102059.00;;;;2075140;28;20222;-59
2022/02/26 01:26:50;;;;;;;3.53;2.23;;;;;17.90;102062.00;;;;2074023;28;20241;-59
2022/02/26 01:27:50;;;;;;;4.20;1.90;;;;;17.90;102065.00;;;;2075816;28;20220;-59
2022/02/26 01:28:51;;;;;;;2.93;2.00;;;;;17.90;102046.00;;;;2076298;28;20222;-59
2022/02/26 01:29:51;;;;;;;2.97;2.13;;;;;17.90;102061.00;;;;2076680;28;20221;-59
2022/02/26 01:30:51;;;;;;;3.17;2.10;;;;;17.90;102064.00;;;;2076415;28;20249;-59
2022/02/26 01:31:52;;;;;;;3.43;2.23;;;;;17.90;102062.00;;;;2076808;28;20689;-59
2022/02/26 01:32:52;;;;;;;3.07;1.93;;;;;17.90;102053.00;;;;2076434;28;20229;-59
2022/02/26 01:33:52;;;;;;;3.27;2.23;;;;;17.90;102058.00;;;;2075874;28;20751;-59
2022/02/26 01:34:52;;;;;;;3.07;2.00;;;;;17.90;102066.00;;;;2075862;28;20682;-59
2022/02/26 01:35:53;;;;;;;4.50;1.77;;;;;17.90;102065.00;;;;2075750;28;20229;-59
2022/02/26 01:36:53;;;;;;;2.67;1.97;;;;;17.90;102073.00;;;;2075829;28;20215;-59
2022/02/26 01:37:53;;;;;;;2.30;1.83;;;;;17.90;102064.00;;;;2074548;28;20218;-59
2022/02/26 01:38:54;;;;;;;2.57;1.97;;;;;17.90;102069.00;;;;2076039;28;20222;-59
2022/02/26 01:39:54;;;;;;;2.70;1.77;;;;;17.90;102068.00;;;;2075148;28;20220;-59
2022/02/26 01:40:54;;;;;;;3.37;1.60;;;;;17.90;102073.00;;;;2075286;28;20241;-60
2022/02/26 01:41:57;;;;;;;3.53;1.80;;;;;17.90;102067.00;;;;2075688;28;20224;-59
2022/02/26 01:42:57;;;;;;;2.90;2.08;;;;;17.90;102076.00;;;;2075608;28;20278;-59
2022/02/26 01:43:57;;;;;;;2.40;1.47;;;;;17.90;102070.00;;;;2075798;28;20218;-59
2022/02/26 01:44:58;;;;;;;2.80;2.13;;;;;17.90;102064.00;;;;2075713;28;20307;-59
2022/02/26 01:45:58;;;;;;;2.93;2.07;;;;;17.90;102070.00;;;;2076503;28;20305;-60
2022/02/26 01:46:58;;;;;;;2.40;2.10;;;;;17.90;102070.00;;;;2076568;28;20218;-59
2022/02/26 01:47:59;;;;;;;2.70;1.90;;;;;17.90;102079.00;;;;2076282;28;20341;-59
2022/02/26 01:48:59;;;;;;;2.90;2.17;;;;;17.90;102071.00;;;;2076319;28;20241;-59
2022/02/26 01:49:59;;;;;;;2.70;1.73;;;;;17.90;102074.00;;;;2075188;28;23198;-59
2022/02/26 01:51:00;;;;;;;3.00;2.20;;;;;17.90;102068.00;;;;2075356;28;20206;-59
2022/02/26 01:52:00;;;;;;;2.93;1.87;;;;;17.90;102070.00;;;;2075529;28;20208;-59
2022/02/26 01:53:00;;;;;;;2.93;1.80;;;;;17.90;102067.00;;;;2075467;28;20210;-59
2022/02/26 01:54:01;;;;;;;2.53;1.80;;;;;17.90;102072.00;;;;2074993;28;20210;-59
2022/02/26 01:55:03;;;;;;;2.50;1.90;;;;;17.90;102066.00;;;;2075737;28;20214;-60
2022/02/26 01:56:04;;;;;;;3.05;2.05;;;;;17.90;102062.00;;;;2075775;28;20682;-59
2022/02/26 01:57:04;;;;;;;2.60;1.93;;;;;17.90;102069.00;;;;2064752;28;20240;-59
2022/02/26 01:58:04;;;;;;;5.40;1.93;;;;;17.90;102074.00;;;;2059082;28;21184;-59
2022/02/26 01:59:05;;;;;;;2.80;1.90;;;;;17.90;102065.00;;;;2074743;28;20228;-59
2022/02/26 02:00:07;;;;;;;2.80;1.83;;;;;17.90;102073.00;;;;2075507;28;20217;-59
2022/02/26 02:01:07;;;;;;;2.95;2.20;;;;;17.90;102070.00;;;;2075268;28;20228;-59
2022/02/26 02:02:07;;;;;;;2.73;2.40;;;;;17.90;102064.00;;;;2075960;28;20725;-59
2022/02/26 02:03:08;;;;;;;3.50;1.87;;;;;17.90;102075.00;;;;2076585;28;20243;-59
2022/02/26 02:04:08;;;;;;;2.50;1.77;;;;;17.90;102074.00;;;;2076318;28;20223;-59
2022/02/26 02:05:09;;;;;;;2.87;2.07;;;;;17.90;102073.00;;;;2072863;28;20217;-59
2022/02/26 02:06:10;;;;;;;3.00;1.90;;;;;17.90;102071.00;;;;2076399;28;20218;-59
2022/02/26 02:07:10;;;;;;;3.05;1.67;;;;;17.90;102070.00;;;;2075430;28;20212;-59
2022/02/26 02:08:11;;;;;;;2.53;1.90;;;;;17.90;102074.00;;;;2075517;28;20788;-59
2022/02/26 02:09:11;;;;;;;2.73;1.90;;;;;17.90;102083.00;;;;2075392;28;20210;-59
2022/02/26 02:10:12;;;;;;;2.53;1.80;;;;;17.90;102078.00;;;;2075620;28;20207;-59
2022/02/26 02:11:12;;;;;;;3.23;1.87;;;;;17.90;102064.00;;;;2076159;28;20284;-59
2022/02/26 02:12:12;;;;;;;2.80;1.90;;;;;17.90;102073.00;;;;2076177;28;20202;-59
2022/02/26 02:13:13;;;;;;;3.07;2.00;;;;;17.90;102072.00;;;;2076345;28;20216;-60
2022/02/26 02:14:13;;;;;;;2.63;1.83;;;;;17.90;102081.00;;;;2076312;28;20228;-59
2022/02/26 02:15:13;;;;;;;2.93;1.97;;;;;17.90;102074.00;;;;2075463;28;20245;-59
2022/02/26 02:16:17;;;;;;;2.23;2.00;;;;;17.90;102076.00;;;;2075586;28;20309;-59
2022/02/26 02:17:21;;;;;;;3.83;1.80;;;;;17.90;102078.00;;;;2075436;28;20221;-59
2022/02/26 02:18:21;;;;;;;2.78;2.00;;;;;17.90;102067.00;;;;2075584;28;20245;-59
2022/02/26 02:19:25;;;;;;;2.97;1.97;;;;;17.90;102079.00;;;;2075537;28;20611;-59
2022/02/26 02:20:25;;;;;;;2.85;2.00;;;;;17.90;102083.00;;;;2074746;28;20221;-59
2022/02/26 02:21:25;;;;;;;2.33;1.90;;;;;17.90;102081.00;;;;2075585;28;21004;-59
2022/02/26 02:22:26;;;;;;;2.70;1.90;;;;;17.90;102073.00;;;;2074878;28;20696;-59
2022/02/26 02:23:26;;;;;;;3.80;2.10;;;;;17.90;102081.00;;;;2075514;28;20724;-59
2022/02/26 02:24:26;;;;;;;2.87;1.83;;;;;17.80;102075.00;;;;2075250;28;20626;-59
2022/02/26 02:25:28;;;;;;;2.40;1.97;;;;;17.80;102086.00;;;;2075243;28;20220;-59
2022/02/26 02:26:30;;;;;;;2.67;2.08;;;;;17.90;102083.00;;;;2074576;28;20218;-59
2022/02/26 02:27:30;;;;;;;2.20;1.73;;;;;17.90;102071.00;;;;2075716;28;20701;-59
2022/02/26 02:28:31;;;;;;;2.67;1.90;;;;;17.90;102079.00;;;;2076133;28;20213;-60
2022/02/26 02:29:31;;;;;;;3.30;1.83;;;;;17.90;102086.00;;;;2076218;28;20267;-59
2022/02/26 02:30:32;;;;;;;2.23;1.80;;;;;17.80;102080.00;;;;2074697;28;20236;-60
2022/02/26 02:31:32;;;;;;;2.80;1.90;;;;;17.90;102085.00;;;;2074476;28;20206;-60
2022/02/26 02:32:33;;;;;;;2.40;1.90;;;;;17.90;102085.00;;;;2074870;28;20625;-60
2022/02/26 02:33:39;;;;;;;2.30;2.07;;;;;17.90;102079.00;;;;2075153;28;20676;-59
2022/02/26 02:34:40;;;;;;;2.60;1.80;;;;;17.90;102091.00;;;;2069040;28;20244;-59
2022/02/26 02:35:41;;;;;;;2.47;2.00;;;;;17.90;102095.00;;;;2073796;28;20323;-59
2022/02/26 02:36:43;;;;;;;1.95;1.30;;;;;17.90;102090.00;;;;2074242;28;20214;-59
2022/02/26 02:37:43;;;;;;;2.83;1.80;;;;;17.90;102088.00;;;;2074706;28;20706;-59
2022/02/26 02:38:44;;;;;;;3.33;1.87;;;;;17.90;102097.00;;;;2074791;28;20222;-59
2022/02/26 02:39:44;;;;;;;3.43;2.00;;;;;17.90;102092.00;;;;2075499;28;20214;-59
2022/02/26 02:40:46;;;;;;;2.93;1.80;;;;;17.90;102087.00;;;;2075280;28;20240;-59
2022/02/26 02:41:46;;;;;;;3.15;1.77;;;;;17.90;102091.00;;;;2074399;28;20263;-59
2022/02/26 02:42:46;;;;;;;3.40;1.80;;;;;17.90;102087.00;;;;2074251;28;20322;-59
2022/02/26 02:43:47;;;;;;;2.73;1.83;;;;;17.90;102086.00;;;;2075307;28;20256;-59
2022/02/26 02:44:47;;;;;;;3.00;2.07;;;;;17.90;102098.00;;;;2075360;28;20748;-59
2022/02/26 02:45:47;;;;;;;2.60;2.20;;;;;17.90;102095.00;;;;2075597;28;20206;-59
2022/02/26 02:46:47;;;;;;;4.37;2.37;;;;;17.80;102108.00;;;;2076116;28;20694;-59
2022/02/26 02:47:48;;;;;;;3.70;2.17;;;;;17.80;102091.00;;;;2076197;28;20716;-59
2022/02/26 02:48:49;;;;;;;2.70;1.97;;;;;17.80;102092.00;;;;2075279;28;20760;-59
2022/02/26 02:49:49;;;;;;;4.00;1.90;;;;;17.90;102107.00;;;;2075189;28;20288;-59
2022/02/26 02:50:49;;;;;;;3.57;2.17;;;;;17.90;102109.00;;;;2074871;28;20217;-59
2022/02/26 02:51:50;;;;;;;3.00;1.97;;;;;17.90;102099.00;;;;2062002;28;20221;-59
2022/02/26 02:52:50;;;;;;;3.00;2.10;;;;;17.80;102100.00;;;;2076209;28;20213;-59
2022/02/26 02:53:50;;;;;;;2.80;1.77;;;;;17.90;102103.00;;;;2076227;28;20212;-59
2022/02/26 02:54:51;;;;;;;2.20;1.60;;;;;17.90;102103.00;;;;2075364;28;20202;-59
2022/02/26 02:55:51;;;;;;;1.90;1.47;;;;;17.90;102103.00;;;;2075163;28;20266;-59
2022/02/26 02:56:51;;;;;;;3.83;2.10;;;;;17.90;102095.00;;;;2076173;28;20256;-59
2022/02/26 02:57:52;;;;;;;2.17;1.83;;;;;17.90;102095.00;;;;2076013;28;20228;-60
2022/02/26 02:58:52;;;;;;;2.30;1.70;;;;;17.90;102096.00;;;;2075291;28;20217;-59
2022/02/26 02:59:52;;;;;;;2.40;1.87;;;;;17.90;102104.00;;;;2075248;28;20206;-60
2022/02/26 03:00:53;;;;;;;2.73;1.77;;;;;17.90;102101.00;;;;2074434;28;20213;-59
2022/02/26 03:01:54;;;;;;;2.80;2.17;;;;;17.90;102104.00;;;;2074573;28;20292;-59
2022/02/26 03:02:54;;;;;;;3.20;1.80;;;;;17.80;102109.00;;;;2068238;28;20540;-60
2022/02/26 03:03:54;;;;;;;2.33;1.90;;;;;17.80;102112.00;;;;2069209;28;20260;-60
2022/02/26 03:04:55;;;;;;;2.30;1.60;;;;;17.80;102109.00;;;;2072238;28;20225;-59
2022/02/26 03:05:55;;;;;;;2.43;1.67;;;;;17.80;102108.00;;;;2074672;28;20637;-59
2022/02/26 03:06:55;;;;;;;2.20;1.83;;;;;17.80;102105.00;;;;2074527;28;20711;-59
2022/02/26 03:07:56;;;;;;;2.60;2.00;;;;;17.80;102096.00;;;;2074450;28;20810;-59
2022/02/26 03:08:56;;;;;;;2.87;2.00;;;;;17.80;102102.00;;;;2072583;28;20678;-60
2022/02/26 03:09:56;;;;;;;2.50;1.80;;;;;17.80;102104.00;;;;2074725;28;20376;-59
2022/02/26 03:10:57;;;;;;;2.40;1.73;;;;;17.80;102107.00;;;;2074361;28;20237;-59
2022/02/26 03:11:57;;;;;;;3.43;2.00;;;;;17.80;102107.00;;;;2074982;28;20236;-59
2022/02/26 03:12:57;;;;;;;2.17;1.90;;;;;17.90;102110.00;;;;2075313;28;20206;-59
2022/02/26 03:13:58;;;;;;;3.10;1.80;;;;;17.90;102098.00;;;;2075394;28;20724;-59
2022/02/26 03:14:58;;;;;;;1.77;1.43;;;;;17.80;102102.00;;;;2075337;28;20711;-59
2022/02/26 03:15:59;;;;;;;2.20;1.90;;;;;17.80;102110.00;;;;2074801;28;20228;-59
2022/02/26 03:16:59;;;;;;;2.90;2.10;;;;;17.80;102110.00;;;;2074894;28;20757;-59
2022/02/26 03:17:59;;;;;;;2.40;1.60;;;;;17.80;102121.00;;;;2074942;28;20216;-59
2022/02/26 03:19:00;;;;;;;2.57;2.17;;;;;17.80;102114.00;;;;2075125;28;20612;-59
2022/02/26 03:20:00;;;;;;;3.37;2.00;;;;;17.80;102097.00;;;;2075100;28;20573;-59
2022/02/26 03:21:00;;;;;;;2.30;1.50;;;;;17.90;102109.00;;;;2074850;28;20698;-59
2022/02/26 03:22:01;;;;;;;3.90;2.20;;;;;17.80;102098.00;;;;2075175;28;20490;-60
2022/02/26 03:23:01;;;;;;;2.23;1.90;;;;;17.90;102105.00;;;;2074976;28;20300;-59
2022/02/26 03:24:02;;;;;;;2.77;1.80;;;;;17.80;102103.00;;;;2075039;28;20217;-59
2022/02/26 03:25:02;;;;;;;3.43;2.13;;;;;17.80;102106.00;;;;2074206;28;20244;-59
2022/02/26 03:26:03;;;;;;;3.17;2.07;;;;;17.80;102106.00;;;;2066135;28;20265;-59
2022/02/26 03:27:03;;;;;;;2.53;1.70;;;;;17.80;102113.00;;;;2066124;28;20800;-59
2022/02/26 03:28:04;;;;;;;3.10;1.80;;;;;17.80;102114.00;;;;2072966;28;20342;-59
2022/02/26 03:29:07;;;;;;;3.00;1.97;;;;;17.80;102102.00;;;;2074789;28;21388;-59
2022/02/26 03:30:08;;;;;;;3.10;2.15;;;;;17.80;102107.00;;;;2075387;28;20218;-59
2022/02/26 03:31:08;;;;;;;2.78;2.00;;;;;17.80;102100.00;;;;2074010;28;20260;-59
2022/02/26 03:32:10;;;;;;;2.60;2.03;;;;;17.80;102105.00;;;;2074394;28;20708;-59
2022/02/26 03:33:11;;;;;;;2.80;2.00;;;;;17.80;102104.00;;;;2074963;28;20221;-59
2022/02/26 03:34:12;;;;;;;1.92;1.73;;;;;17.90;102105.00;;;;2074781;28;20332;-59
2022/02/26 03:35:13;;;;;;;2.30;1.73;;;;;17.80;102110.00;;;;2074897;28;20576;-59
2022/02/26 03:36:13;;;;;;;2.37;1.70;;;;;17.80;102101.00;;;;2075144;28;20404;-59
2022/02/26 03:37:14;;;;;;;2.70;1.70;;;;;17.80;102102.00;;;;2075695;28;20209;-59
2022/02/26 03:38:14;;;;;;;3.35;1.98;;;;;17.80;102111.00;;;;2075837;28;20206;-59
2022/02/26 03:39:15;;;;;;;2.07;1.73;;;;;17.80;102104.00;;;;2075704;28;20217;-59
2022/02/26 03:40:16;;;;;;;2.47;1.90;;;;;17.80;102108.00;;;;2075323;28;20217;-58
2022/02/26 03:41:16;;;;;;;2.57;2.00;;;;;17.80;102112.00;;;;2074212;28;20690;-59
2022/02/26 03:42:16;;;;;;;3.43;1.77;;;;;17.80;102109.00;;;;2074110;28;20245;-59
2022/02/26 03:43:17;;;;;;;1.77;1.57;;;;;17.80;102114.00;;;;2074527;28;20828;-59
2022/02/26 03:44:17;;;;;;;2.77;1.70;;;;;17.80;102112.00;;;;2074594;28;20301;-59
2022/02/26 03:45:17;;;;;;;3.30;1.60;;;;;17.80;102130.00;;;;2074932;28;20225;-59
2022/02/26 03:46:18;;;;;;;2.23;1.70;;;;;17.80;102119.00;;;;2074936;28;20293;-59
2022/02/26 03:47:18;;;;;;;2.57;1.70;;;;;17.80;102120.00;;;;2075585;28;20709;-59
2022/02/26 03:48:19;;;;;;;3.57;1.80;;;;;17.80;102111.00;;;;2075562;28;20213;-59
2022/02/26 03:49:19;;;;;;;2.83;1.80;;;;;17.80;102112.00;;;;2074928;28;20217;-59
2022/02/26 03:50:19;;;;;;;2.60;1.80;;;;;17.80;102113.00;;;;2074627;28;20217;-59
2022/02/26 03:51:20;;;;;;;2.80;1.83;;;;;17.80;102110.00;;;;2074696;28;20220;-59
2022/02/26 03:52:20;;;;;;;3.93;2.30;;;;;17.80;102118.00;;;;2074778;28;20574;-59
2022/02/26 03:53:20;;;;;;;2.67;1.70;;;;;17.80;102131.00;;;;2075283;28;20677;-59
2022/02/26 03:54:21;;;;;;;2.50;1.97;;;;;17.80;102125.00;;;;2075741;28;20241;-59
2022/02/26 03:55:21;;;;;;;2.90;1.73;;;;;17.80;102119.00;;;;2075554;28;20214;-59
2022/02/26 03:56:21;;;;;;;2.43;1.90;;;;;17.80;102114.00;;;;2075732;28;20210;-59
2022/02/26 03:57:22;;;;;;;1.83;1.57;;;;;17.80;102127.00;;;;2074763;28;20703;-59
2022/02/26 03:58:22;;;;;;;2.03;1.70;;;;;17.80;102121.00;;;;2075523;28;20234;-59
2022/02/26 03:59:23;;;;;;;2.43;1.90;;;;;17.80;102115.00;;;;2075575;28;20222;-59
2022/02/26 04:00:23;;;;;;;2.50;1.87;;;;;17.80;102125.00;;;;2075538;28;20295;-59
2022/02/26 04:01:23;;;;;;;2.80;1.93;;;;;17.80;102116.00;;;;2075496;28;20217;-59
2022/02/26 04:02:24;;;;;;;2.37;1.70;;;;;17.80;102129.00;;;;2071354;28;20201;-59
2022/02/26 04:03:24;;;;;;;2.70;1.77;;;;;17.80;102131.00;;;;2074651;28;20213;-59
2022/02/26 04:04:24;;;;;;;2.73;1.93;;;;;17.80;102121.00;;;;2074864;28;20213;-59
2022/02/26 04:05:25;;;;;;;3.10;1.70;;;;;17.80;102135.00;;;;2074858;28;20209;-59
2022/02/26 04:06:25;;;;;;;1.70;1.20;;;;;17.80;102132.00;;;;2074970;28;20268;-59
2022/02/26 04:07:25;;;;;;;2.80;1.80;;;;;17.80;102137.00;;;;2075532;28;20210;-59
2022/02/26 04:08:28;;;;;;;4.00;2.17;;;;;17.80;102120.00;;;;2074448;28;20217;-59
2022/02/26 04:09:28;;;;;;;2.17;1.88;;;;;17.80;102130.00;;;;2074865;28;20210;-59
2022/02/26 04:10:29;;;;;;;2.80;2.10;;;;;17.80;102133.00;;;;2075231;28;20694;-59
2022/02/26 04:11:29;;;;;;;3.00;1.80;;;;;17.80;102136.00;;;;2075592;28;20575;-59
2022/02/26 04:12:30;;;;;;;2.20;1.80;;;;;17.80;102137.00;;;;2075672;28;20210;-59
2022/02/26 04:13:30;;;;;;;2.57;1.93;;;;;17.80;102132.00;;;;2075433;28;20240;-59
2022/02/26 04:14:30;;;;;;;3.40;2.07;;;;;17.80;102134.00;;;;2074335;28;20205;-59
2022/02/26 04:15:31;;;;;;;2.50;2.00;;;;;17.80;102142.00;;;;2073972;28;20209;-59
2022/02/26 04:16:31;;;;;;;3.80;1.80;;;;;17.80;102145.00;;;;2074865;28;20221;-60
2022/02/26 04:17:32;;;;;;;3.20;1.60;;;;;17.80;102140.00;;;;2074836;28;20260;-60
2022/02/26 04:18:32;;;;;;;3.90;2.20;;;;;17.80;102083.00;;;;2074984;28;20210;-60
2022/02/26 04:19:32;;;;;;;3.10;1.70;;;;;17.80;102138.00;;;;2074947;28;20213;-59
2022/02/26 04:20:33;;;;;;;1.80;1.60;;;;;17.80;102147.00;;;;2074754;28;20598;-59
2022/02/26 04:21:33;;;;;;;2.50;1.50;;;;;17.80;102137.00;;;;2075498;28;20637;-59
2022/02/26 04:22:34;;;;;;;1.90;1.70;;;;;17.80;102138.00;;;;2075551;28;20720;-59
2022/02/26 04:23:34;;;;;;;5.40;2.33;;;;;17.80;102139.00;;;;2075826;28;20600;-59
2022/02/26 04:24:34;;;;;;;2.93;2.07;;;;;17.80;102140.00;;;;2075320;28;20218;-60
2022/02/26 04:25:35;;;;;;;2.27;1.50;;;;;17.80;102143.00;;;;2075499;28;20213;-59
2022/02/26 04:26:35;;;;;;;2.90;2.07;;;;;17.80;102146.00;;;;2074922;28;20300;-59
2022/02/26 04:27:35;;;;;;;2.20;1.63;;;;;17.80;102150.00;;;;2074105;28;20220;-59
2022/02/26 04:28:35;;;;;;;2.80;1.83;;;;;17.80;102147.00;;;;2074221;28;20218;-59
2022/02/26 04:29:36;;;;;;;5.13;1.87;;;;;17.80;102151.00;;;;2074097;28;20411;-59
2022/02/26 04:30:37;;;;;;;2.40;2.00;;;;;17.80;102154.00;;;;2073755;28;20210;-59
2022/02/26 04:31:38;;;;;;;2.60;2.00;;;;;17.80;102152.00;;;;2075368;28;20210;-59
2022/02/26 04:32:38;;;;;;;2.97;1.73;;;;;17.80;102149.00;;;;2075548;28;20234;-59
2022/02/26 04:33:39;;;;;;;2.70;2.00;;;;;17.80;102145.00;;;;2075565;28;20761;-59
2022/02/26 04:34:39;;;;;;;2.33;1.83;;;;;17.80;102145.00;;;;2075574;28;20253;-59
2022/02/26 04:35:39;;;;;;;1.80;1.40;;;;;17.80;102145.00;;;;2074903;28;20225;-59
2022/02/26 04:36:40;;;;;;;2.80;1.80;;;;;17.80;102152.00;;;;2074881;28;20237;-59
2022/02/26 04:37:40;;;;;;;2.43;1.90;;;;;17.80;102155.00;;;;2074859;28;20209;-59
2022/02/26 04:38:41;;;;;;;2.40;1.40;;;;;17.80;102154.00;;;;2074625;28;20224;-59
2022/02/26 04:39:41;;;;;;;3.30;1.60;;;;;17.80;102157.00;;;;2074935;28;20835;-59
2022/02/26 04:40:41;;;;;;;2.97;2.07;;;;;17.80;102153.00;;;;2075243;28;20233;-59
2022/02/26 04:41:42;;;;;;;3.73;2.23;;;;;17.70;102154.00;;;;2076976;28;20213;-59
2022/02/26 04:42:42;;;;;;;3.17;2.03;;;;;17.80;102151.00;;;;2076416;28;20229;-58
2022/02/26 04:43:43;;;;;;;2.73;2.00;;;;;17.80;102151.00;;;;2076369;28;20735;-59
2022/02/26 04:44:44;;;;;;;2.83;1.80;;;;;17.80;102147.00;;;;2075495;28;20751;-59
2022/02/26 04:45:45;;;;;;;2.92;1.70;;;;;17.80;102154.00;;;;2075488;28;20241;-60
2022/02/26 04:46:45;;;;;;;2.77;1.63;;;;;17.80;102156.00;;;;2076158;28;20222;-59
2022/02/26 04:47:46;;;;;;;2.73;1.77;;;;;17.80;102151.00;;;;2076268;28;20226;-59
2022/02/26 04:48:46;;;;;;;2.73;2.10;;;;;17.80;102153.00;;;;2076932;28;20229;-59
2022/02/26 04:49:46;;;;;;;3.80;1.93;;;;;17.80;102150.00;;;;2076999;28;20696;-59
2022/02/26 04:50:47;;;;;;;2.73;1.60;;;;;17.80;102155.00;;;;2076747;28;20617;-59
2022/02/26 04:51:47;;;;;;;2.13;1.70;;;;;17.80;102151.00;;;;2076967;28;20710;-59
2022/02/26 04:52:47;;;;;;;2.07;1.50;;;;;17.80;102153.00;;;;2075720;28;20591;-59
2022/02/26 04:53:47;;;;;;;3.10;1.97;;;;;17.80;102154.00;;;;2077737;28;20687;-59
2022/02/26 04:54:48;;;;;;;3.07;1.53;;;;;17.80;102160.00;;;;2076275;28;20229;-59
2022/02/26 04:55:48;;;;;;;2.73;1.90;;;;;17.80;102151.00;;;;2076178;28;20343;-59
2022/02/26 04:56:48;;;;;;;3.17;2.00;;;;;17.80;102147.00;;;;2073486;28;20238;-59
2022/02/26 04:57:49;;;;;;;2.53;1.60;;;;;17.80;102151.00;;;;2076849;28;20213;-59
2022/02/26 04:58:49;;;;;;;3.23;2.00;;;;;17.70;102142.00;;;;2076918;28;20218;-59
2022/02/26 04:59:49;;;;;;;2.10;1.80;;;;;17.80;102148.00;;;;2077068;28;20224;-59
2022/02/26 05:00:51;;;;;;;2.87;1.80;;;;;17.80;102151.00;;;;2076582;28;20286;-59